createdAt,value
2017-12-09T00:00:16.459Z,89.57
2017-12-09T00:02:44.788Z,82.03
2017-12-09T00:05:13.025Z,82.97
2017-12-09T00:07:40.502Z,83.60
2017-12-09T00:10:07.973Z,83.93
2017-12-09T00:12:36.221Z,82.83
2017-12-09T00:15:03.698Z,78.60
2017-12-09T00:17:32.020Z,81.33
2017-12-09T00:19:59.509Z,77.70
2017-12-09T00:22:38.773Z,82.60
2017-12-09T00:25:06.247Z,78.57
2017-12-09T00:27:34.485Z,83.43
2017-12-09T00:30:01.957Z,80.53
2017-12-09T00:32:29.433Z,74.97
2017-12-09T00:34:57.672Z,80.10
2017-12-09T00:37:25.146Z,79.37
2017-12-09T00:39:52.666Z,79.37
2017-12-09T00:42:20.883Z,76.27
2017-12-09T00:44:49.124Z,79.10
2017-12-09T00:47:16.600Z,75.27
2017-12-09T00:49:44.073Z,77.33
2017-12-09T00:52:11.550Z,75.60
2017-12-09T00:54:39.789Z,73.10
2017-12-09T00:57:07.260Z,75.57
2017-12-09T00:59:34.736Z,74.67
2017-12-09T01:02:02.213Z,74.63
2017-12-09T01:04:30.458Z,72.33
2017-12-09T01:06:57.937Z,74.70
2017-12-09T01:09:25.413Z,71.17
2017-12-09T01:11:53.654Z,71.43
2017-12-09T01:14:21.129Z,67.23
2017-12-09T01:17:01.236Z,67.00
2017-12-09T01:19:28.713Z,66.20
2017-12-09T01:21:56.186Z,60.37
2017-12-09T01:24:23.660Z,61.67
2017-12-09T01:26:51.900Z,61.20
2017-12-09T01:29:19.375Z,59.30
2017-12-09T01:31:46.852Z,55.93
2017-12-09T01:34:14.320Z,50.07
2017-12-09T01:36:42.557Z,42.33
2017-12-09T01:39:10.034Z,36.77
2017-12-09T01:41:37.514Z,37.53
2017-12-09T01:44:05.750Z,36.40
2017-12-09T01:46:33.222Z,38.90
2017-12-09T01:49:00.705Z,37.40
2017-12-09T01:51:28.936Z,34.70
2017-12-09T01:53:56.419Z,38.13
2017-12-09T01:56:23.888Z,37.93
2017-12-09T01:58:51.405Z,39.93
2017-12-09T02:01:18.877Z,34.77
2017-12-09T02:03:46.348Z,33.00
2017-12-09T02:06:13.828Z,32.20
2017-12-09T02:08:41.298Z,30.07
2017-12-09T02:11:09.533Z,28.10
2017-12-09T02:13:37.004Z,28.23
2017-12-09T02:16:04.478Z,28.40
2017-12-09T02:18:31.945Z,26.17
2017-12-09T02:21:00.189Z,28.30
2017-12-09T02:23:27.657Z,27.13
2017-12-09T02:25:55.129Z,31.47
2017-12-09T02:28:22.601Z,26.80
2017-12-09T02:30:50.836Z,28.07
2017-12-09T02:33:18.305Z,25.23
2017-12-09T02:35:45.781Z,27.33
2017-12-09T02:38:13.253Z,25.90
2017-12-09T02:40:41.562Z,26.67
2017-12-09T02:43:08.994Z,27.67
2017-12-09T02:45:37.229Z,27.03
2017-12-09T02:48:04.696Z,27.47
2017-12-09T02:50:32.936Z,27.90
2017-12-09T02:53:00.412Z,27.50
2017-12-09T02:55:27.886Z,26.40
2017-12-09T02:57:55.364Z,26.20
2017-12-09T03:00:22.832Z,28.33
2017-12-09T03:02:51.073Z,27.30
2017-12-09T03:05:18.557Z,28.50
2017-12-09T03:07:46.025Z,25.50
2017-12-09T03:10:14.268Z,30.07
2017-12-09T03:12:41.737Z,29.30
2017-12-09T03:15:09.977Z,25.97
2017-12-09T03:17:37.454Z,24.90
2017-12-09T03:20:04.930Z,25.57
2017-12-09T03:22:33.173Z,22.27
2017-12-09T03:25:00.643Z,26.30
2017-12-09T03:27:28.115Z,22.27
2017-12-09T03:29:55.582Z,22.57
2017-12-09T03:32:23.820Z,20.93
2017-12-09T03:34:51.293Z,19.50
2017-12-09T03:37:18.766Z,16.87
2017-12-09T03:39:46.238Z,17.17
2017-12-09T03:42:13.716Z,12.97
2017-12-09T03:44:41.954Z,13.93
2017-12-09T03:47:09.428Z,11.60
2017-12-09T03:49:36.900Z,11.07
2017-12-09T03:52:04.373Z,10.40
2017-12-09T03:54:32.613Z,10.13
2017-12-09T03:57:00.088Z,10.10
2017-12-09T03:59:27.557Z,7.10
2017-12-09T04:01:55.791Z,9.07
2017-12-09T04:04:23.257Z,6.60
2017-12-09T04:06:50.733Z,5.53
2017-12-09T04:09:18.206Z,6.50
2017-12-09T04:11:45.676Z,7.50
2017-12-09T04:14:13.911Z,7.50
2017-12-09T04:16:41.381Z,6.03
2017-12-09T04:19:08.841Z,6.40
2017-12-09T04:21:37.817Z,6.90
2017-12-09T04:24:05.282Z,6.23
2017-12-09T04:26:32.750Z,6.83
2017-12-09T04:29:00.208Z,7.33
2017-12-09T04:31:27.677Z,7.03
2017-12-09T04:33:55.145Z,8.73
2017-12-09T04:36:22.613Z,12.63
2017-12-09T04:38:50.849Z,18.37
2017-12-09T04:41:18.321Z,22.33
2017-12-09T04:43:45.794Z,22.87
2017-12-09T04:46:13.265Z,23.93
2017-12-09T04:48:41.503Z,23.77
2017-12-09T04:51:08.976Z,28.77
2017-12-09T04:53:36.450Z,25.23
2017-12-09T04:56:04.692Z,26.63
2017-12-09T04:58:32.168Z,25.63
2017-12-09T05:00:59.641Z,27.90
2017-12-09T05:03:27.110Z,27.87
2017-12-09T05:05:55.346Z,26.80
2017-12-09T05:08:22.817Z,26.13
2017-12-09T05:10:50.285Z,27.07
2017-12-09T05:13:17.764Z,27.80
2017-12-09T05:15:46.009Z,28.20
2017-12-09T05:18:13.485Z,29.60
2017-12-09T05:20:40.958Z,28.47
2017-12-09T05:23:09.205Z,27.13
2017-12-09T05:25:36.676Z,27.23
2017-12-09T05:28:04.157Z,28.57
2017-12-09T05:30:32.392Z,27.17
2017-12-09T05:32:59.862Z,26.63
2017-12-09T05:35:27.340Z,26.40
2017-12-09T05:37:55.581Z,27.93
2017-12-09T05:40:23.097Z,27.77
2017-12-09T05:42:50.569Z,25.40
2017-12-09T05:45:18.036Z,26.20
2017-12-09T05:47:45.504Z,25.80
2017-12-09T05:50:12.973Z,27.70
2017-12-09T05:52:40.440Z,24.13
2017-12-09T05:55:07.916Z,26.37
2017-12-09T05:57:35.393Z,26.17
2017-12-09T06:00:03.629Z,25.60
2017-12-09T06:02:31.100Z,26.47
2017-12-09T06:04:59.341Z,27.37
2017-12-09T06:07:26.812Z,26.27
2017-12-09T06:09:54.282Z,25.97
2017-12-09T06:12:21.753Z,25.67
2017-12-09T06:14:49.997Z,25.40
2017-12-09T06:17:17.465Z,25.07
2017-12-09T06:19:44.932Z,24.20
2017-12-09T06:22:12.410Z,25.40
2017-12-09T06:24:39.886Z,23.57
2017-12-09T06:27:08.143Z,23.97
2017-12-09T06:29:35.610Z,23.17
2017-12-09T06:32:03.076Z,24.10
2017-12-09T06:34:31.310Z,23.67
2017-12-09T06:36:58.782Z,25.93
2017-12-09T06:39:26.262Z,23.97
2017-12-09T06:41:53.733Z,24.93
2017-12-09T06:44:21.973Z,25.27
2017-12-09T06:46:49.449Z,23.93
2017-12-09T06:49:16.913Z,24.50
2017-12-09T06:51:44.400Z,25.70
2017-12-09T06:54:11.870Z,23.27
2017-12-09T06:56:39.350Z,22.23
2017-12-09T06:59:06.825Z,21.17
2017-12-09T07:01:34.295Z,22.30
2017-12-09T07:04:01.768Z,23.63
2017-12-09T07:06:29.237Z,23.77
2017-12-09T07:08:57.478Z,22.60
2017-12-09T07:11:24.945Z,23.37
2017-12-09T07:13:52.422Z,21.10
2017-12-09T07:16:20.658Z,21.93
2017-12-09T07:18:48.129Z,23.93
2017-12-09T07:21:15.609Z,23.10
2017-12-09T07:23:43.078Z,20.70
2017-12-09T07:26:10.585Z,18.90
2017-12-09T07:28:38.058Z,19.20
2017-12-09T07:31:05.533Z,18.27
2017-12-09T07:33:34.508Z,20.80
2017-12-09T07:36:02.013Z,17.73
2017-12-09T07:38:30.253Z,16.30
2017-12-09T07:40:57.729Z,17.00
2017-12-09T07:43:25.201Z,17.70
2017-12-09T07:45:53.437Z,16.87
2017-12-09T07:48:20.907Z,17.17
2017-12-09T07:50:48.381Z,16.80
2017-12-09T07:53:15.849Z,15.30
2017-12-09T07:55:44.089Z,12.53
2017-12-09T07:58:11.557Z,13.70
2017-12-09T08:00:39.033Z,13.60
2017-12-09T08:03:06.506Z,13.50
2017-12-09T08:05:34.746Z,12.73
2017-12-09T08:08:02.221Z,12.70
2017-12-09T08:10:29.696Z,12.10
2017-12-09T08:12:57.941Z,12.03
2017-12-09T08:15:25.412Z,12.30
2017-12-09T08:17:54.385Z,10.70
2017-12-09T08:20:21.862Z,12.07
2017-12-09T08:22:49.361Z,11.20
2017-12-09T08:25:17.606Z,10.47
2017-12-09T08:27:45.841Z,12.53
2017-12-09T08:30:13.312Z,12.57
2017-12-09T08:32:40.784Z,13.57
2017-12-09T08:35:08.665Z,14.30
2017-12-09T08:37:37.406Z,12.80
2017-12-09T08:40:04.883Z,12.70
2017-12-09T08:42:32.358Z,12.30
2017-12-09T08:44:59.825Z,16.13
2017-12-09T08:47:27.303Z,12.93
2017-12-09T08:49:55.601Z,11.30
2017-12-09T08:52:23.849Z,12.30
2017-12-09T08:54:51.324Z,12.47
2017-12-09T08:57:25.752Z,12.00
2017-12-09T08:59:54.608Z,11.07
2017-12-09T09:02:23.592Z,12.10
2017-12-09T09:04:51.218Z,11.43
2017-12-09T09:07:18.868Z,11.80
2017-12-09T09:09:47.228Z,11.60
2017-12-09T09:12:15.729Z,13.57
2017-12-09T09:14:44.018Z,13.10
2017-12-09T09:17:11.621Z,14.50
2017-12-09T09:19:39.233Z,12.97
2017-12-09T09:22:07.134Z,14.10
2017-12-09T09:24:34.605Z,15.13
2017-12-09T09:27:02.080Z,14.03
2017-12-09T09:29:29.593Z,13.57
2017-12-09T09:31:58.378Z,14.90
2017-12-09T09:34:25.981Z,13.83
2017-12-09T09:36:53.646Z,12.10
2017-12-09T09:39:21.121Z,13.17
2017-12-09T09:41:48.589Z,12.80
2017-12-09T09:44:17.145Z,14.40
2017-12-09T09:46:44.667Z,13.47
2017-12-09T09:49:12.136Z,15.50
2017-12-09T09:51:39.608Z,14.47
2017-12-09T09:54:07.157Z,16.20
2017-12-09T09:56:34.704Z,14.37
2017-12-09T09:59:02.305Z,14.90
2017-12-09T10:01:30.042Z,17.53
2017-12-09T10:03:57.591Z,31.50
2017-12-09T10:06:25.105Z,20.70
2017-12-09T10:08:52.572Z,19.00
2017-12-09T10:11:20.820Z,16.53
2017-12-09T10:13:48.454Z,30.27
2017-12-09T10:16:16.039Z,19.43
2017-12-09T10:18:43.518Z,20.63
2017-12-09T10:21:11.126Z,22.70
2017-12-09T10:23:38.596Z,23.10
2017-12-09T10:26:06.409Z,20.60
2017-12-09T10:28:35.388Z,47.30
2017-12-09T10:31:02.977Z,27.30
2017-12-09T10:33:31.289Z,21.50
2017-12-09T10:35:58.866Z,18.90
2017-12-09T10:38:26.476Z,18.90
2017-12-09T10:40:55.249Z,22.00
2017-12-09T10:43:23.100Z,31.67
2017-12-09T10:45:50.688Z,23.87
2017-12-09T10:48:18.391Z,19.50
2017-12-09T10:50:46.098Z,17.50
2017-12-09T10:53:13.820Z,16.37
2017-12-09T10:55:41.338Z,18.23
2017-12-09T10:58:08.808Z,13.00
2017-12-09T11:00:37.044Z,11.23
2017-12-09T11:03:04.537Z,13.37
2017-12-09T11:05:32.772Z,12.13
2017-12-09T11:08:00.377Z,12.50
2017-12-09T11:10:28.721Z,11.40
2017-12-09T11:12:56.225Z,10.93
2017-12-09T11:15:24.456Z,10.67
2017-12-09T11:17:51.930Z,11.07
2017-12-09T11:20:19.396Z,8.53
2017-12-09T11:22:46.860Z,8.63
2017-12-09T11:25:14.336Z,7.97
2017-12-09T11:27:42.570Z,8.67
2017-12-09T11:30:10.042Z,7.00
2017-12-09T11:32:37.517Z,8.33
2017-12-09T11:35:05.765Z,8.80
2017-12-09T11:37:33.233Z,9.50
2017-12-09T11:40:01.470Z,9.80
2017-12-09T11:42:28.966Z,12.40
2017-12-09T11:44:56.441Z,12.47
2017-12-09T11:47:24.697Z,13.40
2017-12-09T11:49:52.241Z,14.20
2017-12-09T11:52:19.718Z,12.63
2017-12-09T11:54:47.192Z,11.57
2017-12-09T11:57:14.657Z,9.93
2017-12-09T12:02:25.013Z,7.90
2017-12-09T12:04:52.502Z,7.77
2017-12-09T12:07:20.726Z,5.57
2017-12-09T12:09:48.193Z,5.07
2017-12-09T12:12:15.659Z,4.20
2017-12-09T12:14:43.161Z,5.17
2017-12-09T12:17:11.392Z,4.23
2017-12-09T12:19:38.920Z,4.93
2017-12-09T12:22:06.394Z,5.00
2017-12-09T12:24:33.864Z,5.53
2017-12-09T12:27:01.337Z,5.57
2017-12-09T12:29:28.796Z,5.70
2017-12-09T12:31:56.280Z,4.93
2017-12-09T12:34:24.513Z,5.20
2017-12-09T12:36:52.008Z,5.00
2017-12-09T12:39:19.485Z,5.97
2017-12-09T12:41:47.721Z,5.87
2017-12-09T12:44:15.193Z,6.20
2017-12-09T12:46:42.660Z,8.40
2017-12-09T12:49:10.128Z,6.80
2017-12-09T12:51:38.361Z,5.97
2017-12-09T12:54:05.832Z,6.43
2017-12-09T12:56:33.301Z,8.13
2017-12-09T12:59:00.773Z,6.53
2017-12-09T13:01:28.240Z,6.33
2017-12-09T13:03:56.493Z,5.80
2017-12-09T13:06:23.965Z,6.57
2017-12-09T13:08:51.432Z,5.90
2017-12-09T13:11:19.670Z,7.00
2017-12-09T13:13:47.146Z,7.43
2017-12-09T13:16:14.613Z,5.80
2017-12-09T13:18:42.857Z,5.47
2017-12-09T13:21:10.333Z,6.33
2017-12-09T13:23:37.797Z,6.33
2017-12-09T13:26:06.042Z,7.83
2017-12-09T13:28:33.512Z,6.50
2017-12-09T13:31:01.020Z,6.53
2017-12-09T13:33:28.465Z,6.77
2017-12-09T13:35:56.710Z,6.80
2017-12-09T13:38:24.185Z,6.93
2017-12-09T13:40:51.648Z,5.73
2017-12-09T13:43:19.113Z,5.30
2017-12-09T13:45:47.381Z,5.23
2017-12-09T13:48:14.864Z,6.37
2017-12-09T13:50:43.107Z,6.43
2017-12-09T13:53:10.583Z,4.43
2017-12-09T13:55:38.081Z,6.03
2017-12-09T13:58:06.301Z,6.93
2017-12-09T14:00:33.768Z,6.53
2017-12-09T14:03:01.237Z,10.00
2017-12-09T14:05:28.710Z,7.47
2017-12-09T14:07:56.953Z,7.50
2017-12-09T14:10:24.421Z,7.47
2017-12-09T14:12:51.893Z,7.53
2017-12-09T14:15:20.129Z,7.90
2017-12-09T14:17:47.605Z,6.83
2017-12-09T14:20:15.083Z,6.57
2017-12-09T14:22:43.333Z,6.50
2017-12-09T14:25:10.817Z,6.33
2017-12-09T14:27:38.305Z,6.80
2017-12-09T14:30:05.777Z,6.03
2017-12-09T14:32:33.249Z,7.53
2017-12-09T14:35:00.714Z,9.03
2017-12-09T14:37:28.181Z,8.07
2017-12-09T14:39:55.661Z,7.63
2017-12-09T14:42:23.129Z,5.73
2017-12-09T14:44:50.601Z,7.70
2017-12-09T14:47:18.832Z,6.20
2017-12-09T14:49:46.300Z,6.00
2017-12-09T14:52:13.773Z,6.63
2017-12-09T14:54:41.274Z,6.77
2017-12-09T14:57:08.788Z,5.40
2017-12-09T14:59:37.105Z,7.10
2017-12-09T15:02:04.645Z,5.80
2017-12-09T15:04:32.967Z,5.13
2017-12-09T15:07:00.433Z,5.40
2017-12-09T15:09:27.898Z,6.23
2017-12-09T15:11:55.365Z,6.07
2017-12-09T15:14:22.852Z,6.23
2017-12-09T15:16:51.088Z,6.97
2017-12-09T15:19:18.600Z,6.23
2017-12-09T15:21:46.126Z,7.20
2017-12-09T15:24:13.594Z,8.40
2017-12-09T15:26:42.617Z,7.47
2017-12-09T15:29:10.920Z,7.33
2017-12-09T15:31:38.464Z,7.00
2017-12-09T15:34:05.935Z,7.90
2017-12-09T15:36:33.469Z,7.47
2017-12-09T15:39:01.872Z,7.17
2017-12-09T15:41:29.441Z,9.87
2017-12-09T15:43:56.924Z,8.53
2017-12-09T15:46:24.455Z,8.83
2017-12-09T15:48:52.073Z,9.00
2017-12-09T15:51:19.652Z,7.70
2017-12-09T15:53:47.888Z,7.97
2017-12-09T15:56:15.446Z,9.03
2017-12-09T15:58:42.918Z,10.17
2017-12-09T16:01:10.384Z,7.50
2017-12-09T16:03:37.864Z,7.37
2017-12-09T16:06:06.932Z,8.60
2017-12-09T16:08:35.400Z,7.83
2017-12-09T16:11:02.874Z,10.00
2017-12-09T16:13:30.350Z,10.40
2017-12-09T16:15:58.841Z,8.20
2017-12-09T16:18:27.538Z,9.10
2017-12-09T16:20:55.936Z,7.30
2017-12-09T16:23:24.345Z,9.30
2017-12-09T16:25:51.819Z,7.57
2017-12-09T16:28:19.290Z,6.57
2017-12-09T16:30:48.239Z,7.87
2017-12-09T16:33:15.709Z,7.40
2017-12-09T16:35:43.180Z,7.33
2017-12-09T16:38:10.659Z,7.60
2017-12-09T16:40:38.905Z,12.43
2017-12-09T16:43:06.375Z,7.90
2017-12-09T16:45:33.850Z,6.90
2017-12-09T16:48:01.324Z,8.23
2017-12-09T16:50:29.560Z,7.20
2017-12-09T16:52:57.032Z,7.73
2017-12-09T16:55:24.506Z,7.33
2017-12-09T16:57:51.972Z,9.27
2017-12-09T17:00:20.213Z,16.27
2017-12-09T17:02:47.692Z,9.73
2017-12-09T17:05:15.165Z,18.17
2017-12-09T17:07:43.412Z,8.50
2017-12-09T17:10:10.872Z,8.47
2017-12-09T17:12:38.340Z,9.20
2017-12-09T17:15:05.825Z,15.23
2017-12-09T17:17:34.069Z,14.87
2017-12-09T17:20:01.545Z,9.73
2017-12-09T17:22:29.084Z,10.00
2017-12-09T17:24:56.578Z,9.10
2017-12-09T17:27:24.824Z,9.23
2017-12-09T17:29:52.402Z,9.73
2017-12-09T17:32:20.653Z,10.10
2017-12-09T17:34:48.195Z,11.20
2017-12-09T17:37:15.752Z,10.13
2017-12-09T17:39:43.345Z,9.40
2017-12-09T17:42:11.539Z,8.70
2017-12-09T17:44:39.805Z,9.73
2017-12-09T17:47:07.392Z,18.73
2017-12-09T17:49:35.650Z,10.17
2017-12-09T17:52:03.121Z,8.57
2017-12-09T17:54:31.528Z,9.20
2017-12-09T17:56:59.145Z,8.93
2017-12-09T17:59:28.132Z,10.17
2017-12-09T18:01:56.806Z,8.43
2017-12-09T18:04:25.166Z,8.83
2017-12-09T18:06:53.284Z,10.57
2017-12-09T18:09:22.365Z,10.83
2017-12-09T18:11:49.999Z,8.23
2017-12-09T18:14:18.162Z,9.13
2017-12-09T18:16:45.969Z,7.43
2017-12-09T18:19:13.436Z,8.53
2017-12-09T18:21:40.937Z,8.10
2017-12-09T18:24:08.484Z,8.23
2017-12-09T18:26:36.723Z,8.60
2017-12-09T18:29:04.232Z,8.30
2017-12-09T18:31:31.749Z,10.83
2017-12-09T18:33:59.257Z,10.90
2017-12-09T18:36:26.944Z,9.80
2017-12-09T18:38:54.412Z,9.90
2017-12-09T18:41:22.017Z,9.77
2017-12-09T18:43:50.312Z,13.27
2017-12-09T18:46:17.877Z,8.10
2017-12-09T18:48:45.361Z,7.53
2017-12-09T18:51:12.860Z,7.73
2017-12-09T18:53:40.351Z,9.70
2017-12-09T18:56:07.820Z,10.97
2017-12-09T18:58:35.312Z,6.80
2017-12-09T19:01:02.851Z,6.67
2017-12-09T19:03:31.217Z,6.60
2017-12-09T19:05:58.764Z,7.33
2017-12-09T19:08:26.393Z,6.80
2017-12-09T19:10:54.626Z,7.00
2017-12-09T19:13:22.099Z,9.20
2017-12-09T19:15:49.569Z,8.33
2017-12-09T19:18:17.055Z,8.13
2017-12-09T19:20:45.318Z,8.03
2017-12-09T19:23:12.785Z,7.37
2017-12-09T19:25:40.257Z,7.30
2017-12-09T19:28:08.497Z,8.43
2017-12-09T19:30:35.968Z,8.17
2017-12-09T19:33:03.452Z,7.40
2017-12-09T19:35:31.737Z,7.40
2017-12-09T19:37:59.977Z,6.53
2017-12-09T19:40:27.554Z,7.50
2017-12-09T19:42:55.142Z,7.40
2017-12-09T19:45:22.662Z,6.87
2017-12-09T19:47:50.132Z,5.13
2017-12-09T19:50:19.233Z,6.20
2017-12-09T19:52:47.495Z,5.90
2017-12-09T19:55:14.966Z,6.50
2017-12-09T19:57:43.224Z,7.90
2017-12-09T20:00:20.684Z,7.70
2017-12-09T20:02:48.243Z,7.70
2017-12-09T20:05:15.756Z,10.27
2017-12-09T20:07:43.267Z,8.80
2017-12-09T20:10:10.882Z,6.90
2017-12-09T20:12:39.191Z,8.37
2017-12-09T20:15:06.708Z,9.80
2017-12-09T20:17:34.312Z,7.83
2017-12-09T20:20:01.867Z,5.63
2017-12-09T20:22:29.348Z,6.30
2017-12-09T20:24:56.926Z,6.87
2017-12-09T20:27:24.431Z,8.83
2017-12-09T20:29:52.686Z,6.90
2017-12-09T20:32:20.291Z,6.77
2017-12-09T20:34:47.769Z,10.00
2017-12-09T20:37:15.250Z,6.63
2017-12-09T20:39:42.759Z,6.70
2017-12-09T20:42:10.265Z,6.83
2017-12-09T20:44:37.749Z,6.67
2017-12-09T20:47:06.006Z,5.80
2017-12-09T20:49:33.522Z,7.57
2017-12-09T20:52:01.045Z,7.30
2017-12-09T20:54:28.554Z,6.60
2017-12-09T20:56:56.018Z,6.37
2017-12-09T20:59:23.491Z,5.40
2017-12-09T21:01:51.043Z,7.20
2017-12-09T21:04:18.565Z,5.37
2017-12-09T21:06:46.809Z,6.80
2017-12-09T21:09:14.427Z,6.30
2017-12-09T21:11:41.900Z,5.30
2017-12-09T21:14:09.376Z,6.23
2017-12-09T21:16:36.876Z,7.00
2017-12-09T21:19:05.121Z,6.43
2017-12-09T21:21:32.625Z,6.50
2017-12-09T21:24:00.175Z,8.13
2017-12-09T21:26:28.474Z,6.70
2017-12-09T21:28:56.049Z,7.33
2017-12-09T21:31:23.580Z,5.90
2017-12-09T21:33:51.121Z,6.37
2017-12-09T21:36:19.465Z,8.47
2017-12-09T21:38:46.941Z,5.63
2017-12-09T21:41:15.268Z,6.77
2017-12-09T21:43:42.832Z,7.10
2017-12-09T21:46:10.316Z,7.83
2017-12-09T21:48:37.789Z,6.13
2017-12-09T21:51:05.260Z,6.70
2017-12-09T21:53:32.742Z,5.73
2017-12-09T21:56:00.291Z,7.33
2017-12-09T21:58:27.843Z,6.07
2017-12-09T22:00:55.321Z,8.30
2017-12-09T22:03:23.596Z,5.93
2017-12-09T22:05:51.121Z,7.17
2017-12-09T22:08:18.594Z,7.20
2017-12-09T22:10:46.056Z,6.20
2017-12-09T22:13:14.469Z,5.60
2017-12-09T22:15:42.061Z,6.70
2017-12-09T22:18:09.590Z,7.03
2017-12-09T22:20:37.058Z,7.33
2017-12-09T22:23:04.520Z,8.93
2017-12-09T22:25:31.982Z,6.80
2017-12-09T22:27:59.444Z,6.80
2017-12-09T22:30:27.067Z,6.53
2017-12-09T22:32:55.304Z,8.10
2017-12-09T22:35:22.942Z,7.47
2017-12-09T22:37:50.422Z,7.40
2017-12-09T22:40:17.893Z,8.37
2017-12-09T22:42:46.172Z,7.57
2017-12-09T22:45:14.442Z,8.07
2017-12-09T22:47:49.259Z,7.43
2017-12-09T22:50:16.764Z,6.20
2017-12-09T22:52:44.268Z,6.57
2017-12-09T22:55:11.736Z,6.57
2017-12-09T22:57:39.352Z,8.00
2017-12-09T23:00:07.589Z,6.20
2017-12-09T23:02:35.064Z,6.93
2017-12-09T23:05:02.574Z,6.30
2017-12-09T23:07:30.037Z,6.60
2017-12-09T23:09:57.519Z,6.47
2017-12-09T23:12:24.989Z,6.43
2017-12-09T23:14:52.448Z,6.23
2017-12-09T23:17:19.916Z,6.30
2017-12-09T23:19:47.384Z,5.07
2017-12-09T23:22:14.853Z,5.73
2017-12-09T23:24:43.088Z,5.97
2017-12-09T23:27:10.562Z,6.37
2017-12-09T23:29:38.037Z,6.10
2017-12-09T23:32:05.502Z,6.60
2017-12-09T23:34:33.745Z,5.20
2017-12-09T23:37:01.209Z,4.90
2017-12-09T23:39:28.680Z,5.30
2017-12-09T23:41:56.146Z,4.73
2017-12-09T23:44:24.377Z,5.20
2017-12-09T23:46:51.844Z,5.50
2017-12-09T23:49:19.309Z,5.63
2017-12-09T23:51:46.781Z,5.60
2017-12-09T23:54:15.756Z,4.70
2017-12-09T23:56:43.233Z,6.23
2017-12-09T23:59:12.212Z,5.30
